Terminal Aerodrome Forecast
Issued by NWS

Home | Current Version | Previous Version | Text Only | Print | Product List | Glossary On
Versions: 1 2 3 4 5 6 7 8 9 10 11 12 13
000
FTUS46 KSGX 221728
TAFONT
TAF
KONT 221728Z 2218/2324 24006KT P6SM SKC
     FM222100 26012G18KT P6SM SKC
     FM230500 VRB05KT P6SM SKC
     FM231100 VRB04KT 3SM BR SCT004
     FM231300 VRB04KT 1SM BR VCFG BKN003
     FM231600 VRB04KT 5SM HZ SCT005
     FM232000 25012G18KT P6SM SKC=

USA.gov is the U.S. government's official web portal to all federal, state and local government web resources and services.